sensor_id;sensor_type;location;lat;lon;timestamp;temperature;humidity
55121;DHT22;41019;48.512;9.036;2022-10-17T00:01:57;12.30;95.60
55121;DHT22;41019;48.512;9.036;2022-10-17T00:04:23;12.20;96.10
55121;DHT22;41019;48.512;9.036;2022-10-17T00:06:49;12.20;96.20
55121;DHT22;41019;48.512;9.036;2022-10-17T00:09:15;12.20;96.80
55121;DHT22;41019;48.512;9.036;2022-10-17T00:11:41;12.20;96.60
55121;DHT22;41019;48.512;9.036;2022-10-17T00:14:07;12.20;96.30
55121;DHT22;41019;48.512;9.036;2022-10-17T00:16:35;12.10;96.30
55121;DHT22;41019;48.512;9.036;2022-10-17T00:19:06;12.20;96.40
55121;DHT22;41019;48.512;9.036;2022-10-17T00:21:33;12.10;96.20
55121;DHT22;41019;48.512;9.036;2022-10-17T00:24:00;12.10;96.20
55121;DHT22;41019;48.512;9.036;2022-10-17T00:26:26;12.10;96.10
55121;DHT22;41019;48.512;9.036;2022-10-17T00:28:54;12.10;95.80
55121;DHT22;41019;48.512;9.036;2022-10-17T00:31:21;12.10;96.30
55121;DHT22;41019;48.512;9.036;2022-10-17T00:33:49;12.10;95.80
55121;DHT22;41019;48.512;9.036;2022-10-17T00:36:16;12.00;95.90
55121;DHT22;41019;48.512;9.036;2022-10-17T00:38:45;12.00;96.10
55121;DHT22;41019;48.512;9.036;2022-10-17T00:41:15;12.00;96.00
55121;DHT22;41019;48.512;9.036;2022-10-17T00:44:05;12.00;95.70
55121;DHT22;41019;48.512;9.036;2022-10-17T00:46:37;12.00;95.90
55121;DHT22;41019;48.512;9.036;2022-10-17T00:49:07;12.00;96.00
55121;DHT22;41019;48.512;9.036;2022-10-17T00:51:42;12.00;95.70
55121;DHT22;41019;48.512;9.036;2022-10-17T00:54:13;12.00;96.00
55121;DHT22;41019;48.512;9.036;2022-10-17T00:56:41;12.00;95.70
55121;DHT22;41019;48.512;9.036;2022-10-17T00:59:09;11.90;96.00
55121;DHT22;41019;48.512;9.036;2022-10-17T01:01:40;11.90;95.80
55121;DHT22;41019;48.512;9.036;2022-10-17T01:04:06;11.90;95.70
55121;DHT22;41019;48.512;9.036;2022-10-17T01:06:32;11.90;96.20
55121;DHT22;41019;48.512;9.036;2022-10-17T01:08:58;11.90;96.10
55121;DHT22;41019;48.512;9.036;2022-10-17T01:11:49;11.90;95.90
55121;DHT22;41019;48.512;9.036;2022-10-17T01:26:04;11.70;95.70
55121;DHT22;41019;48.512;9.036;2022-10-17T01:29:12;11.70;95.50
55121;DHT22;41019;48.512;9.036;2022-10-17T01:34:57;11.60;95.20
55121;DHT22;41019;48.512;9.036;2022-10-17T01:37:36;11.60;95.40
55121;DHT22;41019;48.512;9.036;2022-10-17T01:40:21;11.60;95.60
55121;DHT22;41019;48.512;9.036;2022-10-17T01:45:54;11.50;96.00
55121;DHT22;41019;48.512;9.036;2022-10-17T01:48:33;11.50;95.90
55121;DHT22;41019;48.512;9.036;2022-10-17T01:51:16;11.50;96.10
55121;DHT22;41019;48.512;9.036;2022-10-17T01:53:51;11.60;96.40
55121;DHT22;41019;48.512;9.036;2022-10-17T01:56:23;11.50;96.00
55121;DHT22;41019;48.512;9.036;2022-10-17T01:58:56;11.50;96.00
55121;DHT22;41019;48.512;9.036;2022-10-17T02:01:26;11.50;96.40
55121;DHT22;41019;48.512;9.036;2022-10-17T02:03:56;11.50;96.50
55121;DHT22;41019;48.512;9.036;2022-10-17T02:06:22;11.40;96.10
55121;DHT22;41019;48.512;9.036;2022-10-17T02:08:50;11.50;96.40
55121;DHT22;41019;48.512;9.036;2022-10-17T02:11:20;11.40;95.80
55121;DHT22;41019;48.512;9.036;2022-10-17T02:16:42;11.50;97.10
55121;DHT22;41019;48.512;9.036;2022-10-17T02:19:33;11.50;97.20
55121;DHT22;41019;48.512;9.036;2022-10-17T02:25:13;11.50;97.70
55121;DHT22;41019;48.512;9.036;2022-10-17T02:27:59;11.50;97.80
55121;DHT22;41019;48.512;9.036;2022-10-17T02:30:48;11.60;97.70
55121;DHT22;41019;48.512;9.036;2022-10-17T02:33:46;11.50;97.40
55121;DHT22;41019;48.512;9.036;2022-10-17T02:36:22;11.60;97.30
55121;DHT22;41019;48.512;9.036;2022-10-17T02:38:51;11.50;97.30
55121;DHT22;41019;48.512;9.036;2022-10-17T02:41:21;11.60;97.10
55121;DHT22;41019;48.512;9.036;2022-10-17T02:43:52;11.60;96.90
55121;DHT22;41019;48.512;9.036;2022-10-17T02:46:22;11.60;96.70
55121;DHT22;41019;48.512;9.036;2022-10-17T02:48:57;11.50;96.80
55121;DHT22;41019;48.512;9.036;2022-10-17T02:51:32;11.50;97.00
55121;DHT22;41019;48.512;9.036;2022-10-17T02:56:41;11.50;97.40
55121;DHT22;41019;48.512;9.036;2022-10-17T02:59:13;11.50;97.20
55121;DHT22;41019;48.512;9.036;2022-10-17T03:01:42;11.50;97.20
55121;DHT22;41019;48.512;9.036;2022-10-17T03:04:12;11.50;96.90
55121;DHT22;41019;48.512;9.036;2022-10-17T03:06:41;11.40;97.30
55121;DHT22;41019;48.512;9.036;2022-10-17T03:09:07;11.50;97.30
55121;DHT22;41019;48.512;9.036;2022-10-17T03:11:34;11.40;97.40
55121;DHT22;41019;48.512;9.036;2022-10-17T03:14:00;11.40;97.20
55121;DHT22;41019;48.512;9.036;2022-10-17T03:16:26;11.40;97.70
55121;DHT22;41019;48.512;9.036;2022-10-17T03:18:53;11.40;97.90
55121;DHT22;41019;48.512;9.036;2022-10-17T03:21:19;11.40;98.00
55121;DHT22;41019;48.512;9.036;2022-10-17T03:23:45;11.50;98.10
55121;DHT22;41019;48.512;9.036;2022-10-17T03:26:12;11.40;98.00
55121;DHT22;41019;48.512;9.036;2022-10-17T03:28:39;11.40;98.10
55121;DHT22;41019;48.512;9.036;2022-10-17T03:31:10;11.50;98.10
55121;DHT22;41019;48.512;9.036;2022-10-17T03:33:37;11.40;98.10
55121;DHT22;41019;48.512;9.036;2022-10-17T03:36:21;11.40;97.70
55121;DHT22;41019;48.512;9.036;2022-10-17T03:38:52;11.50;97.80
55121;DHT22;41019;48.512;9.036;2022-10-17T03:41:20;11.40;97.40
55121;DHT22;41019;48.512;9.036;2022-10-17T03:43:47;11.40;97.20
55121;DHT22;41019;48.512;9.036;2022-10-17T03:46:13;11.40;97.20
55121;DHT22;41019;48.512;9.036;2022-10-17T03:48:39;11.30;97.30
55121;DHT22;41019;48.512;9.036;2022-10-17T03:51:08;11.30;96.60
55121;DHT22;41019;48.512;9.036;2022-10-17T03:53:40;11.30;97.00
55121;DHT22;41019;48.512;9.036;2022-10-17T03:56:15;11.30;96.90
55121;DHT22;41019;48.512;9.036;2022-10-17T03:58:43;11.30;96.90
55121;DHT22;41019;48.512;9.036;2022-10-17T04:01:12;11.30;96.40
55121;DHT22;41019;48.512;9.036;2022-10-17T04:03:40;11.20;96.60
55121;DHT22;41019;48.512;9.036;2022-10-17T04:06:07;11.20;97.00
55121;DHT22;41019;48.512;9.036;2022-10-17T04:08:35;11.20;96.90
55121;DHT22;41019;48.512;9.036;2022-10-17T04:11:07;11.20;96.20
55121;DHT22;41019;48.512;9.036;2022-10-17T04:13:34;11.10;96.40
55121;DHT22;41019;48.512;9.036;2022-10-17T04:16:11;11.10;96.60
55121;DHT22;41019;48.512;9.036;2022-10-17T04:18:43;11.10;97.00
55121;DHT22;41019;48.512;9.036;2022-10-17T04:21:10;11.10;96.90
55121;DHT22;41019;48.512;9.036;2022-10-17T04:23:38;11.10;96.60
55121;DHT22;41019;48.512;9.036;2022-10-17T04:26:13;11.10;96.10
55121;DHT22;41019;48.512;9.036;2022-10-17T04:28:39;11.00;96.80
55121;DHT22;41019;48.512;9.036;2022-10-17T04:31:07;11.00;96.70
55121;DHT22;41019;48.512;9.036;2022-10-17T04:33:53;11.00;96.70
55121;DHT22;41019;48.512;9.036;2022-10-17T04:36:19;11.00;96.40
55121;DHT22;41019;48.512;9.036;2022-10-17T04:38:46;11.00;96.90
55121;DHT22;41019;48.512;9.036;2022-10-17T04:41:14;11.00;96.70
55121;DHT22;41019;48.512;9.036;2022-10-17T04:43:41;11.00;96.40
55121;DHT22;41019;48.512;9.036;2022-10-17T04:46:10;10.90;96.30
55121;DHT22;41019;48.512;9.036;2022-10-17T04:48:36;10.90;96.20
55121;DHT22;41019;48.512;9.036;2022-10-17T04:51:05;10.80;95.60
55121;DHT22;41019;48.512;9.036;2022-10-17T04:53:39;10.80;95.90
55121;DHT22;41019;48.512;9.036;2022-10-17T04:56:14;10.80;95.80
55121;DHT22;41019;48.512;9.036;2022-10-17T04:58:41;10.80;95.50
55121;DHT22;41019;48.512;9.036;2022-10-17T05:01:11;10.70;95.40
55121;DHT22;41019;48.512;9.036;2022-10-17T05:03:40;10.70;95.30
55121;DHT22;41019;48.512;9.036;2022-10-17T05:06:09;10.70;94.90
55121;DHT22;41019;48.512;9.036;2022-10-17T05:08:37;10.60;95.10
55121;DHT22;41019;48.512;9.036;2022-10-17T05:11:05;10.60;95.30
55121;DHT22;41019;48.512;9.036;2022-10-17T05:13:32;10.60;95.50
55121;DHT22;41019;48.512;9.036;2022-10-17T05:15:59;10.60;95.50
55121;DHT22;41019;48.512;9.036;2022-10-17T05:18:26;10.60;95.60
55121;DHT22;41019;48.512;9.036;2022-10-17T05:20:54;10.50;95.30
55121;DHT22;41019;48.512;9.036;2022-10-17T05:23:20;10.50;96.00
55121;DHT22;41019;48.512;9.036;2022-10-17T05:25:46;10.50;96.70
55121;DHT22;41019;48.512;9.036;2022-10-17T05:28:12;10.50;96.70
55121;DHT22;41019;48.512;9.036;2022-10-17T05:30:40;10.50;96.60
55121;DHT22;41019;48.512;9.036;2022-10-17T05:33:07;10.50;96.80
55121;DHT22;41019;48.512;9.036;2022-10-17T05:35:35;10.50;97.10
55121;DHT22;41019;48.512;9.036;2022-10-17T05:38:01;10.50;96.70
55121;DHT22;41019;48.512;9.036;2022-10-17T05:40:28;10.50;97.10
55121;DHT22;41019;48.512;9.036;2022-10-17T05:42:54;10.50;97.00
55121;DHT22;41019;48.512;9.036;2022-10-17T05:45:21;10.40;96.70
55121;DHT22;41019;48.512;9.036;2022-10-17T05:47:47;10.40;96.70
55121;DHT22;41019;48.512;9.036;2022-10-17T05:50:15;10.50;96.60
55121;DHT22;41019;48.512;9.036;2022-10-17T05:52:58;10.50;96.60
55121;DHT22;41019;48.512;9.036;2022-10-17T05:55:24;10.50;96.80
55121;DHT22;41019;48.512;9.036;2022-10-17T05:57:51;10.50;96.50
55121;DHT22;41019;48.512;9.036;2022-10-17T06:00:20;10.50;96.60
55121;DHT22;41019;48.512;9.036;2022-10-17T06:02:54;10.50;96.90
55121;DHT22;41019;48.512;9.036;2022-10-17T06:05:21;10.50;96.80
55121;DHT22;41019;48.512;9.036;2022-10-17T06:07:47;10.50;96.70
55121;DHT22;41019;48.512;9.036;2022-10-17T06:10:16;10.50;96.90
55121;DHT22;41019;48.512;9.036;2022-10-17T06:12:44;10.60;97.10
55121;DHT22;41019;48.512;9.036;2022-10-17T06:15:11;10.60;97.50
55121;DHT22;41019;48.512;9.036;2022-10-17T06:17:39;10.60;97.30
55121;DHT22;41019;48.512;9.036;2022-10-17T06:20:05;10.60;97.10
55121;DHT22;41019;48.512;9.036;2022-10-17T06:22:32;10.60;97.00
55121;DHT22;41019;48.512;9.036;2022-10-17T06:24:59;10.60;96.90
55121;DHT22;41019;48.512;9.036;2022-10-17T06:27:25;10.60;96.80
55121;DHT22;41019;48.512;9.036;2022-10-17T06:29:51;10.60;96.90
55121;DHT22;41019;48.512;9.036;2022-10-17T06:32:17;10.60;96.80
55121;DHT22;41019;48.512;9.036;2022-10-17T06:34:45;10.60;96.90
55121;DHT22;41019;48.512;9.036;2022-10-17T06:37:11;10.70;97.10
55121;DHT22;41019;48.512;9.036;2022-10-17T06:39:39;10.70;97.10
55121;DHT22;41019;48.512;9.036;2022-10-17T06:42:10;10.70;97.00
55121;DHT22;41019;48.512;9.036;2022-10-17T06:45:09;10.80;97.20
55121;DHT22;41019;48.512;9.036;2022-10-17T06:47:40;10.80;97.30
55121;DHT22;41019;48.512;9.036;2022-10-17T06:50:26;10.80;97.30
55121;DHT22;41019;48.512;9.036;2022-10-17T06:53:09;10.80;97.30
55121;DHT22;41019;48.512;9.036;2022-10-17T06:55:50;10.90;97.70
55121;DHT22;41019;48.512;9.036;2022-10-17T06:58:38;11.00;97.60
55121;DHT22;41019;48.512;9.036;2022-10-17T07:01:17;11.00;97.40
55121;DHT22;41019;48.512;9.036;2022-10-17T07:03:50;11.00;96.90
55121;DHT22;41019;48.512;9.036;2022-10-17T07:06:16;11.10;97.10
55121;DHT22;41019;48.512;9.036;2022-10-17T07:08:44;11.10;97.30
55121;DHT22;41019;48.512;9.036;2022-10-17T07:11:15;11.20;97.60
55121;DHT22;41019;48.512;9.036;2022-10-17T07:13:42;11.30;97.10
55121;DHT22;41019;48.512;9.036;2022-10-17T07:16:09;11.30;96.80
55121;DHT22;41019;48.512;9.036;2022-10-17T07:18:37;11.40;96.90
55121;DHT22;41019;48.512;9.036;2022-10-17T07:21:04;11.50;96.90
55121;DHT22;41019;48.512;9.036;2022-10-17T07:23:30;11.60;96.90
55121;DHT22;41019;48.512;9.036;2022-10-17T07:26:00;11.70;97.00
55121;DHT22;41019;48.512;9.036;2022-10-17T07:28:28;11.90;97.10
55121;DHT22;41019;48.512;9.036;2022-10-17T07:31:05;12.00;97.30
55121;DHT22;41019;48.512;9.036;2022-10-17T07:33:32;12.10;97.40
55121;DHT22;41019;48.512;9.036;2022-10-17T07:35:59;12.30;97.20
55121;DHT22;41019;48.512;9.036;2022-10-17T07:38:26;12.40;97.10
55121;DHT22;41019;48.512;9.036;2022-10-17T07:40:57;12.60;96.60
55121;DHT22;41019;48.512;9.036;2022-10-17T07:43:24;12.70;96.80
55121;DHT22;41019;48.512;9.036;2022-10-17T07:45:53;12.80;96.40
55121;DHT22;41019;48.512;9.036;2022-10-17T07:48:20;13.00;96.20
55121;DHT22;41019;48.512;9.036;2022-10-17T07:50:47;13.10;96.20
55121;DHT22;41019;48.512;9.036;2022-10-17T07:53:13;13.30;95.80
55121;DHT22;41019;48.512;9.036;2022-10-17T07:55:40;13.40;95.40
55121;DHT22;41019;48.512;9.036;2022-10-17T07:58:07;13.60;95.20
55121;DHT22;41019;48.512;9.036;2022-10-17T08:00:35;13.70;94.70
55121;DHT22;41019;48.512;9.036;2022-10-17T08:03:02;13.80;94.30
55121;DHT22;41019;48.512;9.036;2022-10-17T08:05:29;14.00;94.40
55121;DHT22;41019;48.512;9.036;2022-10-17T08:07:55;14.10;94.80
55121;DHT22;41019;48.512;9.036;2022-10-17T08:10:21;14.20;94.60
55121;DHT22;41019;48.512;9.036;2022-10-17T08:12:56;14.40;94.00
55121;DHT22;41019;48.512;9.036;2022-10-17T08:15:23;14.50;93.60
55121;DHT22;41019;48.512;9.036;2022-10-17T08:17:50;14.70;93.60
55121;DHT22;41019;48.512;9.036;2022-10-17T08:20:17;14.90;93.60
55121;DHT22;41019;48.512;9.036;2022-10-17T08:22:51;15.00;93.10
55121;DHT22;41019;48.512;9.036;2022-10-17T08:25:17;15.20;93.40
55121;DHT22;41019;48.512;9.036;2022-10-17T08:27:43;15.40;92.00
55121;DHT22;41019;48.512;9.036;2022-10-17T08:30:09;15.60;91.80
55121;DHT22;41019;48.512;9.036;2022-10-17T08:32:35;15.70;91.30
55121;DHT22;41019;48.512;9.036;2022-10-17T08:35:01;15.80;91.30
55121;DHT22;41019;48.512;9.036;2022-10-17T08:37:26;15.90;91.20
55121;DHT22;41019;48.512;9.036;2022-10-17T08:39:54;16.00;90.90
55121;DHT22;41019;48.512;9.036;2022-10-17T08:42:54;16.10;90.40
55121;DHT22;41019;48.512;9.036;2022-10-17T08:45:33;16.20;90.20
55121;DHT22;41019;48.512;9.036;2022-10-17T08:48:07;16.30;90.40
55121;DHT22;41019;48.512;9.036;2022-10-17T08:50:41;16.50;90.00
55121;DHT22;41019;48.512;9.036;2022-10-17T08:55:51;16.80;90.40
55121;DHT22;41019;48.512;9.036;2022-10-17T08:58:26;17.00;89.30
55121;DHT22;41019;48.512;9.036;2022-10-17T09:01:22;17.20;88.00
55121;DHT22;41019;48.512;9.036;2022-10-17T09:06:47;17.60;87.20
55121;DHT22;41019;48.512;9.036;2022-10-17T09:11:49;17.90;83.70
55121;DHT22;41019;48.512;9.036;2022-10-17T09:19:22;18.40;83.20
55121;DHT22;41019;48.512;9.036;2022-10-17T09:22:08;18.70;81.20
55121;DHT22;41019;48.512;9.036;2022-10-17T09:24:40;18.90;79.20
55121;DHT22;41019;48.512;9.036;2022-10-17T09:29:51;19.30;78.20
55121;DHT22;41019;48.512;9.036;2022-10-17T09:32:22;19.40;77.30
55121;DHT22;41019;48.512;9.036;2022-10-17T09:34:51;19.60;76.70
55121;DHT22;41019;48.512;9.036;2022-10-17T09:37:20;19.80;76.10
55121;DHT22;41019;48.512;9.036;2022-10-17T09:39:47;20.10;76.30
55121;DHT22;41019;48.512;9.036;2022-10-17T09:42:16;20.20;75.30
55121;DHT22;41019;48.512;9.036;2022-10-17T09:45:13;20.50;74.30
55121;DHT22;41019;48.512;9.036;2022-10-17T09:47:46;20.70;73.20
55121;DHT22;41019;48.512;9.036;2022-10-17T09:50:20;20.90;71.60
55121;DHT22;41019;48.512;9.036;2022-10-17T09:52:48;21.10;71.00
55121;DHT22;41019;48.512;9.036;2022-10-17T09:55:33;21.20;70.20
55121;DHT22;41019;48.512;9.036;2022-10-17T09:58:05;21.50;70.20
55121;DHT22;41019;48.512;9.036;2022-10-17T10:00:41;21.70;69.40
55121;DHT22;41019;48.512;9.036;2022-10-17T10:03:26;21.80;68.10
55121;DHT22;41019;48.512;9.036;2022-10-17T10:06:06;22.00;68.70
55121;DHT22;41019;48.512;9.036;2022-10-17T10:11:14;22.30;66.50
55121;DHT22;41019;48.512;9.036;2022-10-17T10:13:43;22.40;67.60
55121;DHT22;41019;48.512;9.036;2022-10-17T10:16:21;22.40;66.30
55121;DHT22;41019;48.512;9.036;2022-10-17T10:18:49;22.50;66.30
55121;DHT22;41019;48.512;9.036;2022-10-17T10:21:20;22.60;66.80
55121;DHT22;41019;48.512;9.036;2022-10-17T10:26:47;22.90;66.00
55121;DHT22;41019;48.512;9.036;2022-10-17T10:29:28;23.00;67.20
55121;DHT22;41019;48.512;9.036;2022-10-17T10:32:17;23.10;66.40
55121;DHT22;41019;48.512;9.036;2022-10-17T10:34:52;23.10;65.50
55121;DHT22;41019;48.512;9.036;2022-10-17T10:37:24;23.00;65.80
55121;DHT22;41019;48.512;9.036;2022-10-17T10:39:57;23.00;66.80
55121;DHT22;41019;48.512;9.036;2022-10-17T10:42:34;23.00;68.20
55121;DHT22;41019;48.512;9.036;2022-10-17T10:47:56;23.10;67.60
55121;DHT22;41019;48.512;9.036;2022-10-17T10:50:37;23.20;67.80
55121;DHT22;41019;48.512;9.036;2022-10-17T10:55:48;23.40;66.90
55121;DHT22;41019;48.512;9.036;2022-10-17T11:01:05;23.60;66.80
55121;DHT22;41019;48.512;9.036;2022-10-17T11:03:52;23.60;66.10
55121;DHT22;41019;48.512;9.036;2022-10-17T11:06:27;23.60;66.50
55121;DHT22;41019;48.512;9.036;2022-10-17T11:09:17;23.50;67.80
55121;DHT22;41019;48.512;9.036;2022-10-17T11:12:00;23.50;68.30
55121;DHT22;41019;48.512;9.036;2022-10-17T11:14:39;23.50;67.90
55121;DHT22;41019;48.512;9.036;2022-10-17T11:17:31;23.60;67.00
55121;DHT22;41019;48.512;9.036;2022-10-17T11:22:48;23.80;67.20
55121;DHT22;41019;48.512;9.036;2022-10-17T11:27:48;23.90;66.30
55121;DHT22;41019;48.512;9.036;2022-10-17T11:30:16;24.00;66.80
55121;DHT22;41019;48.512;9.036;2022-10-17T11:32:47;24.10;65.40
55121;DHT22;41019;48.512;9.036;2022-10-17T11:35:17;24.20;65.70
55121;DHT22;41019;48.512;9.036;2022-10-17T11:37:52;24.20;65.40
55121;DHT22;41019;48.512;9.036;2022-10-17T11:40:21;24.40;66.30
55121;DHT22;41019;48.512;9.036;2022-10-17T11:43:14;24.50;66.20
55121;DHT22;41019;48.512;9.036;2022-10-17T11:45:48;24.60;65.00
55121;DHT22;41019;48.512;9.036;2022-10-17T11:48:40;24.70;64.80
55121;DHT22;41019;48.512;9.036;2022-10-17T11:51:12;24.80;64.30
55121;DHT22;41019;48.512;9.036;2022-10-17T11:53:56;24.90;63.70
55121;DHT22;41019;48.512;9.036;2022-10-17T11:59:30;25.20;62.50
55121;DHT22;41019;48.512;9.036;2022-10-17T12:02:08;25.40;62.20
55121;DHT22;41019;48.512;9.036;2022-10-17T12:18:43;26.00;59.00
55121;DHT22;41019;48.512;9.036;2022-10-17T12:21:09;26.10;56.90
55121;DHT22;41019;48.512;9.036;2022-10-17T12:23:36;26.10;54.50
55121;DHT22;41019;48.512;9.036;2022-10-17T12:26:08;26.30;50.00
55121;DHT22;41019;48.512;9.036;2022-10-17T12:28:46;26.40;48.10
55121;DHT22;41019;48.512;9.036;2022-10-17T12:34:02;26.60;44.80
55121;DHT22;41019;48.512;9.036;2022-10-17T12:41:52;26.60;44.10
55121;DHT22;41019;48.512;9.036;2022-10-17T12:46:56;26.70;42.70
55121;DHT22;41019;48.512;9.036;2022-10-17T12:52:26;26.70;43.00
55121;DHT22;41019;48.512;9.036;2022-10-17T12:55:16;26.70;43.30
55121;DHT22;41019;48.512;9.036;2022-10-17T12:58:04;26.60;43.00
55121;DHT22;41019;48.512;9.036;2022-10-17T13:00:41;26.60;43.40
55121;DHT22;41019;48.512;9.036;2022-10-17T13:03:30;26.60;42.40
55121;DHT22;41019;48.512;9.036;2022-10-17T13:05:57;26.60;43.00
55121;DHT22;41019;48.512;9.036;2022-10-17T13:08:33;26.60;43.10
55121;DHT22;41019;48.512;9.036;2022-10-17T13:11:01;26.60;43.10
55121;DHT22;41019;48.512;9.036;2022-10-17T13:13:35;26.50;43.10
55121;DHT22;41019;48.512;9.036;2022-10-17T13:16:03;26.40;43.70
55121;DHT22;41019;48.512;9.036;2022-10-17T13:18:29;26.40;43.80
55121;DHT22;41019;48.512;9.036;2022-10-17T13:21:01;26.30;44.00
55121;DHT22;41019;48.512;9.036;2022-10-17T13:23:36;26.20;43.80
55121;DHT22;41019;48.512;9.036;2022-10-17T13:26:26;26.20;43.80
55121;DHT22;41019;48.512;9.036;2022-10-17T13:31:35;26.20;43.10
55121;DHT22;41019;48.512;9.036;2022-10-17T13:34:04;26.20;43.10
55121;DHT22;41019;48.512;9.036;2022-10-17T13:36:33;26.10;43.90
55121;DHT22;41019;48.512;9.036;2022-10-17T13:39:06;26.10;43.00
55121;DHT22;41019;48.512;9.036;2022-10-17T13:41:34;26.10;43.00
55121;DHT22;41019;48.512;9.036;2022-10-17T13:44:03;26.00;43.60
55121;DHT22;41019;48.512;9.036;2022-10-17T13:46:34;26.00;43.50
55121;DHT22;41019;48.512;9.036;2022-10-17T13:49:11;25.90;43.50
55121;DHT22;41019;48.512;9.036;2022-10-17T13:51:44;25.90;44.50
55121;DHT22;41019;48.512;9.036;2022-10-17T13:54:38;25.90;44.10
55121;DHT22;41019;48.512;9.036;2022-10-17T13:57:20;25.80;45.10
55121;DHT22;41019;48.512;9.036;2022-10-17T14:02:24;25.70;46.10
55121;DHT22;41019;48.512;9.036;2022-10-17T14:07:49;25.40;49.90
55121;DHT22;41019;48.512;9.036;2022-10-17T14:10:23;25.30;52.40
55121;DHT22;41019;48.512;9.036;2022-10-17T14:12:52;25.00;50.80
55121;DHT22;41019;48.512;9.036;2022-10-17T14:15:23;24.90;51.80
55121;DHT22;41019;48.512;9.036;2022-10-17T14:18:18;24.90;52.40
55121;DHT22;41019;48.512;9.036;2022-10-17T14:20:48;24.70;54.20
55121;DHT22;41019;48.512;9.036;2022-10-17T14:26:12;24.30;54.20
55121;DHT22;41019;48.512;9.036;2022-10-17T14:28:41;24.20;54.90
55121;DHT22;41019;48.512;9.036;2022-10-17T14:33:46;24.00;53.70
55121;DHT22;41019;48.512;9.036;2022-10-17T14:36:14;23.90;54.80
55121;DHT22;41019;48.512;9.036;2022-10-17T14:38:47;23.80;52.80
55121;DHT22;41019;48.512;9.036;2022-10-17T14:41:21;23.80;55.60
55121;DHT22;41019;48.512;9.036;2022-10-17T14:43:58;23.70;55.40
55121;DHT22;41019;48.512;9.036;2022-10-17T14:46:25;23.60;55.50
55121;DHT22;41019;48.512;9.036;2022-10-17T14:49:07;23.60;54.90
55121;DHT22;41019;48.512;9.036;2022-10-17T14:51:38;23.50;57.60
55121;DHT22;41019;48.512;9.036;2022-10-17T14:54:25;23.30;58.20
55121;DHT22;41019;48.512;9.036;2022-10-17T14:56:53;23.20;58.10
55121;DHT22;41019;48.512;9.036;2022-10-17T14:59:19;23.10;56.90
55121;DHT22;41019;48.512;9.036;2022-10-17T15:01:50;23.00;59.50
55121;DHT22;41019;48.512;9.036;2022-10-17T15:04:16;22.90;60.30
55121;DHT22;41019;48.512;9.036;2022-10-17T15:06:43;22.80;60.80
55121;DHT22;41019;48.512;9.036;2022-10-17T15:09:10;22.80;60.40
55121;DHT22;41019;48.512;9.036;2022-10-17T15:11:36;22.70;60.40
55121;DHT22;41019;48.512;9.036;2022-10-17T15:14:03;22.60;61.60
55121;DHT22;41019;48.512;9.036;2022-10-17T15:16:33;22.50;61.40
55121;DHT22;41019;48.512;9.036;2022-10-17T15:18:59;22.40;61.50
55121;DHT22;41019;48.512;9.036;2022-10-17T15:21:27;22.30;62.00
55121;DHT22;41019;48.512;9.036;2022-10-17T15:23:53;22.20;62.00
55121;DHT22;41019;48.512;9.036;2022-10-17T15:26:25;22.20;62.40
55121;DHT22;41019;48.512;9.036;2022-10-17T15:28:52;22.10;62.70
55121;DHT22;41019;48.512;9.036;2022-10-17T15:31:21;22.00;62.90
55121;DHT22;41019;48.512;9.036;2022-10-17T15:33:48;21.90;63.10
55121;DHT22;41019;48.512;9.036;2022-10-17T15:36:18;21.80;63.60
55121;DHT22;41019;48.512;9.036;2022-10-17T15:38:46;21.80;63.80
55121;DHT22;41019;48.512;9.036;2022-10-17T15:41:12;21.70;64.60
55121;DHT22;41019;48.512;9.036;2022-10-17T15:43:38;21.60;65.20
55121;DHT22;41019;48.512;9.036;2022-10-17T15:46:10;21.50;65.60
55121;DHT22;41019;48.512;9.036;2022-10-17T15:48:37;21.40;65.30
55121;DHT22;41019;48.512;9.036;2022-10-17T15:51:02;21.40;65.30
55121;DHT22;41019;48.512;9.036;2022-10-17T15:53:28;21.30;66.30
55121;DHT22;41019;48.512;9.036;2022-10-17T15:55:54;21.20;66.90
55121;DHT22;41019;48.512;9.036;2022-10-17T15:58:24;21.10;67.50
55121;DHT22;41019;48.512;9.036;2022-10-17T16:00:52;21.00;67.80
55121;DHT22;41019;48.512;9.036;2022-10-17T16:03:19;20.90;67.80
55121;DHT22;41019;48.512;9.036;2022-10-17T16:05:44;20.80;68.60
55121;DHT22;41019;48.512;9.036;2022-10-17T16:08:10;20.70;68.90
55121;DHT22;41019;48.512;9.036;2022-10-17T16:10:39;20.60;68.80
55121;DHT22;41019;48.512;9.036;2022-10-17T16:13:05;20.50;67.30
55121;DHT22;41019;48.512;9.036;2022-10-17T16:15:30;20.50;68.20
55121;DHT22;41019;48.512;9.036;2022-10-17T16:17:57;20.40;68.50
55121;DHT22;41019;48.512;9.036;2022-10-17T16:20:23;20.30;69.80
55121;DHT22;41019;48.512;9.036;2022-10-17T16:22:50;20.20;71.90
55121;DHT22;41019;48.512;9.036;2022-10-17T16:25:25;20.10;72.40
55121;DHT22;41019;48.512;9.036;2022-10-17T16:27:53;20.00;72.70
55121;DHT22;41019;48.512;9.036;2022-10-17T16:30:21;19.90;73.70
55121;DHT22;41019;48.512;9.036;2022-10-17T16:32:47;19.70;73.00
55121;DHT22;41019;48.512;9.036;2022-10-17T16:35:27;19.60;73.10
55121;DHT22;41019;48.512;9.036;2022-10-17T16:37:54;19.60;73.10
55121;DHT22;41019;48.512;9.036;2022-10-17T16:40:21;19.50;73.30
55121;DHT22;41019;48.512;9.036;2022-10-17T16:42:47;19.40;73.70
55121;DHT22;41019;48.512;9.036;2022-10-17T16:45:21;19.30;74.00
55121;DHT22;41019;48.512;9.036;2022-10-17T16:47:48;19.20;74.30
55121;DHT22;41019;48.512;9.036;2022-10-17T16:50:14;19.10;75.30
55121;DHT22;41019;48.512;9.036;2022-10-17T16:52:40;19.00;75.20
55121;DHT22;41019;48.512;9.036;2022-10-17T16:55:06;18.90;74.80
55121;DHT22;41019;48.512;9.036;2022-10-17T16:57:32;18.90;74.80
55121;DHT22;41019;48.512;9.036;2022-10-17T16:59:58;18.80;75.30
55121;DHT22;41019;48.512;9.036;2022-10-17T17:02:24;18.70;75.40
55121;DHT22;41019;48.512;9.036;2022-10-17T17:04:50;18.60;76.00
55121;DHT22;41019;48.512;9.036;2022-10-17T17:07:16;18.50;76.80
55121;DHT22;41019;48.512;9.036;2022-10-17T17:09:44;18.50;77.50
55121;DHT22;41019;48.512;9.036;2022-10-17T17:12:10;18.40;77.90
55121;DHT22;41019;48.512;9.036;2022-10-17T17:14:37;18.30;78.10
55121;DHT22;41019;48.512;9.036;2022-10-17T17:17:03;18.30;79.30
55121;DHT22;41019;48.512;9.036;2022-10-17T17:19:29;18.20;79.50
55121;DHT22;41019;48.512;9.036;2022-10-17T17:21:54;18.10;80.10
55121;DHT22;41019;48.512;9.036;2022-10-17T17:24:20;18.10;80.50
55121;DHT22;41019;48.512;9.036;2022-10-17T17:26:52;18.00;81.00
55121;DHT22;41019;48.512;9.036;2022-10-17T17:29:19;18.00;81.70
55121;DHT22;41019;48.512;9.036;2022-10-17T17:31:45;17.90;82.10
55121;DHT22;41019;48.512;9.036;2022-10-17T17:34:10;17.90;82.60
55121;DHT22;41019;48.512;9.036;2022-10-17T17:36:37;17.80;83.10
55121;DHT22;41019;48.512;9.036;2022-10-17T17:39:05;17.70;83.20
55121;DHT22;41019;48.512;9.036;2022-10-17T17:41:32;17.70;83.50